createdAt,value
2022-07-31T00:07:53.450Z,94.4
2022-07-31T00:19:53.478Z,94.6
2022-07-31T00:31:53.763Z,94.9
2022-07-31T00:43:53.821Z,93.9
2022-07-31T00:55:53.509Z,95.0
2022-07-31T01:07:53.572Z,95.2
2022-07-31T01:19:53.655Z,96.0
2022-07-31T01:31:53.976Z,95.6
2022-07-31T01:43:53.663Z,95.6
2022-07-31T01:56:02.172Z,95.8
2022-07-31T02:07:53.960Z,96.1
2022-07-31T02:19:59.901Z,96.0
2022-07-31T02:32:02.008Z,96.7
2022-07-31T02:43:53.971Z,97.2
2022-07-31T02:55:54.153Z,97.5
2022-07-31T03:07:53.951Z,97.9
2022-07-31T03:19:54.204Z,97.2
2022-07-31T03:31:53.466Z,97.0
2022-07-31T03:43:53.453Z,97.0
2022-07-31T03:55:53.467Z,97.6
2022-07-31T04:07:53.450Z,97.9
2022-07-31T04:19:53.422Z,97.8
2022-07-31T04:31:53.460Z,98.1
2022-07-31T04:43:53.438Z,98.7
2022-07-31T04:55:53.459Z,99.1
2022-07-31T05:07:53.441Z,99.8
2022-07-31T05:19:53.461Z,99.8
2022-07-31T05:31:59.530Z,99.8
2022-07-31T05:43:53.460Z,99.6
2022-07-31T05:55:53.453Z,97.9
2022-07-31T06:07:53.451Z,98.9
2022-07-31T06:19:53.486Z,97.4
2022-07-31T06:31:53.415Z,95.8
2022-07-31T06:43:53.464Z,96.0
2022-07-31T06:55:53.473Z,96.0
2022-07-31T07:07:53.485Z,93.7
2022-07-31T07:19:54.963Z,93.7
2022-07-31T07:31:53.458Z,92.9
2022-07-31T07:43:53.592Z,93.5
2022-07-31T07:55:53.474Z,93.7
2022-07-31T08:07:53.465Z,94.3
2022-07-31T08:19:53.470Z,93.7
2022-07-31T08:31:53.432Z,93.0
2022-07-31T08:44:00.136Z,93.7
2022-07-31T08:55:56.068Z,92.5
2022-07-31T09:07:53.500Z,92.5
2022-07-31T09:19:54.949Z,92.6
2022-07-31T09:31:53.726Z,90.9
2022-07-31T09:43:53.453Z,91.6
2022-07-31T09:55:53.478Z,93.3
2022-07-31T10:07:53.469Z,91.5
2022-07-31T10:19:53.493Z,91.7
2022-07-31T10:31:53.464Z,90.5
2022-07-31T10:43:53.460Z,90.1
2022-07-31T10:55:53.461Z,90.0
2022-07-31T11:07:53.450Z,90.0
2022-07-31T11:19:53.500Z,91.3
2022-07-31T11:31:53.451Z,89.8
2022-07-31T11:43:53.456Z,89.1
2022-07-31T11:55:53.466Z,87.2
2022-07-31T12:07:53.457Z,90.0
2022-07-31T12:19:57.774Z,89.0
2022-07-31T12:31:53.469Z,86.2
2022-07-31T12:43:53.777Z,85.0
2022-07-31T12:55:53.470Z,83.0
2022-07-31T13:07:53.468Z,84.7
2022-07-31T13:19:53.476Z,85.2
2022-07-31T13:31:53.423Z,83.9
2022-07-31T13:44:00.383Z,81.4
2022-07-31T13:55:53.463Z,81.9
2022-07-31T14:07:53.458Z,85.3
2022-07-31T14:19:53.464Z,85.2
2022-07-31T14:31:54.092Z,86.4
2022-07-31T14:43:53.447Z,86.6
2022-07-31T14:55:53.459Z,86.7
2022-07-31T15:07:53.868Z,86.1
2022-07-31T15:19:53.473Z,85.8
2022-07-31T15:31:53.451Z,86.9
2022-07-31T15:43:53.955Z,87.1
2022-07-31T15:55:53.475Z,86.6
2022-07-31T16:08:31.807Z,87.6
2022-07-31T16:19:53.494Z,88.1
2022-07-31T16:31:53.434Z,87.0
2022-07-31T16:43:53.460Z,86.7
2022-07-31T16:56:00.593Z,88.3
2022-07-31T17:07:53.449Z,90.2
2022-07-31T17:19:55.332Z,90.5
2022-07-31T17:31:53.442Z,90.9
2022-07-31T17:43:53.618Z,90.9
2022-07-31T17:55:53.464Z,91.1
2022-07-31T18:07:53.454Z,91.2
2022-07-31T18:19:53.848Z,91.5
2022-07-31T18:31:53.440Z,91.7
2022-07-31T18:43:53.453Z,92.2
2022-07-31T18:55:53.476Z,92.6
2022-07-31T19:07:53.473Z,93.2
2022-07-31T19:19:55.008Z,93.6
2022-07-31T19:31:53.461Z,94.1
2022-07-31T19:43:53.414Z,94.4
2022-07-31T19:55:53.466Z,94.6
2022-07-31T20:07:53.964Z,94.8
2022-07-31T20:20:14.375Z,95.1
2022-07-31T20:31:53.453Z,95.6
2022-07-31T20:43:53.716Z,96.0
2022-07-31T20:55:53.462Z,96.3
2022-07-31T21:07:53.436Z,96.8
2022-07-31T21:19:53.617Z,97.4
2022-07-31T21:31:53.488Z,97.9
2022-07-31T21:43:59.560Z,98.3
2022-07-31T21:55:53.775Z,98.8
2022-07-31T22:07:53.461Z,99.5
2022-07-31T22:19:53.782Z,99.7
2022-07-31T22:31:54.061Z,99.9
2022-07-31T22:44:13.682Z,99.9
2022-07-31T22:55:54.097Z,99.9
2022-07-31T23:07:53.438Z,99.9
2022-07-31T23:19:54.421Z,99.9
2022-07-31T23:31:53.957Z,99.9
2022-07-31T23:43:55.223Z,99.9
2022-07-31T23:55:53.539Z,99.9
